1860 Hurricane NOT_NAMED (1860232N25291)


IBTrACS version v04r00. Visit IBTrACS website for data access.
Please direct all questions to the IBTrACS Q and A forum

Storm track - Intensity - Wind Radii - Intensity Data - Source Data - All data

Summary Information

Storm ID 1860232N25291
Start Aug 18 12Z
Landfall Aug 26 12Z, Aug 27 12Z
Max Intensity 65 kt (Aug 24 18Z)
End Aug 27 12Z
ATCF IDs
Track status Best track data.

Storm track plot

Map of storm track

Intensity plots

Map of storm track

Radial wind information

No radial wind information for this storm


Position and Intensity Table

BASIN ISO_TIME_________ NATURE LAT LON MLC WIND
degrees north degrees east kts
NA 1860-08-18 12:00:00 TS 25.00 -69.00 30
NA 15:00:00 TS 25.30 -69.20 30
NA 18:00:00 TS 25.60 -69.40 30
NA 21:00:00 TS 25.90 -69.60 30
NA 1860-08-19 00:00:00 TS 26.20 -69.80 30
NA 03:00:00 TS 26.50 -70.00 30
NA 06:00:00 TS 26.80 -70.20 30
NA 09:00:00 TS 27.10 -70.40 30
NA 12:00:00 TS 27.40 -70.60 30
NA 15:00:00 TS 27.70 -70.80 30
NA 18:00:00 TS 28.00 -71.00 30
NA 21:00:00 TS 28.30 -71.20 30
NA 1860-08-20 00:00:00 TS 28.60 -71.40 30
NA 03:00:00 TS 28.90 -71.60 30
NA 06:00:00 TS 29.20 -71.80 30
NA 09:00:00 TS 29.50 -72.01 30
NA 12:00:00 TS 29.80 -72.20 30
NA 15:00:00 TS 30.11 -72.37 30
NA 18:00:00 TS 30.40 -72.50 30
NA 21:00:00 TS 30.61 -72.62 30
NA 1860-08-21 00:00:00 TS 30.80 -72.70 30
NA 03:00:00 TS 31.01 -72.76 30
NA 06:00:00 TS 31.20 -72.80 30
NA 09:00:00 TS 31.31 -72.85 32
NA 12:00:00 TS 31.40 -72.90 35
NA 15:00:00 TS 31.50 -72.95 35
NA 18:00:00 TS 31.60 -73.00 35
NA 21:00:00 TS 31.70 -73.05 37
NA 1860-08-22 00:00:00 TS 31.80 -73.10 40
NA 03:00:00 TS 31.90 -73.15 40
NA 06:00:00 TS 32.00 -73.20 40
NA 09:00:00 TS 32.10 -73.26 42
NA 12:00:00 TS 32.20 -73.30 45
NA 15:00:00 TS 32.30 -73.30 45
NA 18:00:00 TS 32.40 -73.30 45
NA 21:00:00 TS 32.50 -73.35 47
NA 1860-08-23 00:00:00 TS 32.60 -73.40 50
NA 03:00:00 TS 32.70 -73.40 50
NA 06:00:00 TS 32.80 -73.40 50
NA 09:00:00 TS 32.84 -73.44 52
NA 12:00:00 TS 33.00 -73.50 55
NA 15:00:00 TS 33.44 -73.55 55
NA 18:00:00 TS 34.00 -73.60 55
NA 21:00:00 TS 34.51 -73.70 57
NA 1860-08-24 00:00:00 TS 35.00 -73.70 60
NA 03:00:00 TS 35.42 -73.45 60
NA 06:00:00 TS 35.80 -73.10 60
NA 09:00:00 TS 36.16 -72.80 60
NA 12:00:00 TS 36.50 -72.50 60
NA 15:00:00 TS 36.86 -72.20 62
NA 18:00:00 TS 37.20 -71.90 65
NA 21:00:00 TS 37.49 -71.60 65
NA 1860-08-25 00:00:00 TS 37.80 -71.30 65
NA 03:00:00 TS 38.18 -70.99 65
NA 06:00:00 TS 38.60 -70.70 65
NA 09:00:00 TS 39.00 -70.45 65
NA 12:00:00 TS 39.40 -70.20 65
NA 15:00:00 TS 39.80 -69.91 65
NA 18:00:00 TS 40.20 -69.60 65
NA 21:00:00 TS 40.55 -69.38 65
NA 1860-08-26 00:00:00 TS 41.00 -69.00 65
NA 03:00:00 TS 41.70 -68.23 62
NA 06:00:00 TS 42.50 -67.30 60
NA 09:00:00 TS 43.25 -66.48 55
NA 12:00:00 TS 44.00 -65.70 50
NA 15:00:00 TS 44.75 -64.95 45
NA 18:00:00 TS 45.50 -64.20 40
NA 21:00:00 TS 46.23 -63.40 37
NA 1860-08-27 00:00:00 ET 47.00 -62.60 35
NA 03:00:00 ET 47.83 -61.85 35
NA 06:00:00 ET 48.70 -61.10 35
NA 09:00:00 ET 49.60 -60.32 32
NA 12:00:00 ET 50.50 -59.50 30

Source Information

Agency Information
USA
TOKYO
CMA
HKO
NEWDELHI
REUNION
BOM
NADI
WELLINGTON
DS824
TD9636
TD9635
NEUMANN
MLC

All available IBTrACS Data

SEASON BASIN SUBBASIN ISO_TIME_________ NATURE LAT LON DIST2LAND LANDFALL IFLAG USA SSHS MLC LAT MLC LON MLC CLASS MLC WIND STORM SPEED STORM DIR
Year degrees north degrees east km km 1 degrees north degrees east kts kts degrees
1860 NA NA 1860-08-18 12:00:00 TS 25.00 -69.00 589 589 _____________O -1 25.00 -69.00 TD 30 7 329
1860 NA NA 15:00:00 TS 25.30 -69.20 600 600 _____________P -1 25.30 -69.20 TD 30 7 329
1860 NA NA 18:00:00 TS 25.60 -69.40 613 613 _____________O -1 25.60 -69.40 TD 30 7 329
1860 NA NA 21:00:00 TS 25.90 -69.60 629 629 _____________P -1 25.90 -69.60 TD 30 7 329
1860 NA NA 1860-08-19 00:00:00 TS 26.20 -69.80 646 646 _____________O -1 26.20 -69.80 TD 30 7 329
1860 NA NA 03:00:00 TS 26.50 -70.00 666 666 _____________P -1 26.50 -70.00 TD 30 7 329
1860 NA NA 06:00:00 TS 26.80 -70.20 687 687 _____________O -1 26.80 -70.20 TD 30 7 329
1860 NA NA 09:00:00 TS 27.10 -70.40 710 710 _____________P -1 27.10 -70.40 TD 30 7 329
1860 NA NA 12:00:00 TS 27.40 -70.60 734 734 _____________O -1 27.40 -70.60 TD 30 7 329
1860 NA NA 15:00:00 TS 27.70 -70.80 759 759 _____________P -1 27.70 -70.80 TD 30 7 329
1860 NA NA 18:00:00 TS 28.00 -71.00 767 758 _____________O -1 28.00 -71.00 TD 30 7 329
1860 NA NA 21:00:00 TS 28.30 -71.20 763 756 _____________P -1 28.30 -71.20 TD 30 7 330
1860 NA NA 1860-08-20 00:00:00 TS 28.60 -71.40 761 756 _____________O -1 28.60 -71.40 TD 30 7 330
1860 NA NA 03:00:00 TS 28.90 -71.60 762 756 _____________P -1 28.90 -71.60 TD 30 7 330
1860 NA NA 06:00:00 TS 29.20 -71.80 756 717 _____________O -1 29.20 -71.80 TD 30 7 329
1860 NA NA 09:00:00 TS 29.50 -72.01 717 679 _____________P -1 29.50 -72.01 TD 30 7 330
1860 NA NA 12:00:00 TS 29.80 -72.20 679 640 _____________O -1 29.80 -72.20 TD 30 7 333
1860 NA NA 15:00:00 TS 30.11 -72.37 640 608 _____________P -1 30.11 -72.37 TD 30 7 337
1860 NA NA 18:00:00 TS 30.40 -72.50 608 584 _____________O -1 30.40 -72.50 TD 30 5 336
1860 NA NA 21:00:00 TS 30.61 -72.62 584 561 _____________P -1 30.61 -72.62 TD 30 4 337
1860 NA NA 1860-08-21 00:00:00 TS 30.80 -72.70 561 537 _____________O -1 30.80 -72.70 TD 30 4 343
1860 NA NA 03:00:00 TS 31.01 -72.76 537 520 _____________P -1 31.01 -72.76 TD 30 4 348
1860 NA NA 06:00:00 TS 31.20 -72.80 520 512 _____________O -1 31.20 -72.80 TD 30 3 346
1860 NA NA 09:00:00 TS 31.31 -72.85 505 497 _____________P -1 31.31 -72.85 TD 32 2 335
1860 NA NA 12:00:00 TS 31.40 -72.90 497 489 _____________O -1 31.40 -72.90 TS 35 2 334
1860 NA NA 15:00:00 TS 31.50 -72.95 482 474 _____________P -1 31.50 -72.95 TS 35 2 335
1860 NA NA 18:00:00 TS 31.60 -73.00 474 466 _____________O -1 31.60 -73.00 TS 35 2 335
1860 NA NA 21:00:00 TS 31.70 -73.05 459 451 _____________P -1 31.70 -73.05 TS 37 2 335
1860 NA NA 1860-08-22 00:00:00 TS 31.80 -73.10 451 443 _____________O -1 31.80 -73.10 TS 40 2 335
1860 NA NA 03:00:00 TS 31.90 -73.15 437 429 _____________P -1 31.90 -73.15 TS 40 2 335
1860 NA NA 06:00:00 TS 32.00 -73.20 429 414 _____________O -1 32.00 -73.20 TS 40 2 335
1860 NA NA 09:00:00 TS 32.10 -73.26 414 406 _____________P -1 32.10 -73.26 TS 42 2 335
1860 NA NA 12:00:00 TS 32.20 -73.30 406 399 _____________O -1 32.20 -73.30 TS 45 2 347
1860 NA NA 15:00:00 TS 32.30 -73.30 399 391 _____________P -1 32.30 -73.30 TS 45 2 8
1860 NA NA 18:00:00 TS 32.40 -73.30 391 384 _____________O -1 32.40 -73.30 TS 45 2 347
1860 NA NA 21:00:00 TS 32.50 -73.35 384 369 _____________P -1 32.50 -73.35 TS 47 2 335
1860 NA NA 1860-08-23 00:00:00 TS 32.60 -73.40 369 362 _____________O -1 32.60 -73.40 TS 50 2 347
1860 NA NA 03:00:00 TS 32.70 -73.40 362 355 _____________P -1 32.70 -73.40 TS 50 2 8
1860 NA NA 06:00:00 TS 32.80 -73.40 355 355 _____________O -1 32.80 -73.40 TS 50 1 341
1860 NA NA 09:00:00 TS 32.84 -73.44 355 333 _____________P -1 32.84 -73.44 TS 52 2 335
1860 NA NA 12:00:00 TS 33.00 -73.50 333 306 _____________O -1 33.00 -73.50 TS 55 6 352
1860 NA NA 15:00:00 TS 33.44 -73.55 306 261 _____________P -1 33.44 -73.55 TS 55 10 355
1860 NA NA 18:00:00 TS 34.00 -73.60 261 218 _____________O -1 34.00 -73.60 TS 55 11 353
1860 NA NA 21:00:00 TS 34.51 -73.70 218 185 _____________P -1 34.51 -73.70 TS 57 10 355
1860 NA NA 1860-08-24 00:00:00 TS 35.00 -73.70 185 180 _____________O -1 35.00 -73.70 TS 60 9 13
1860 NA NA 03:00:00 TS 35.42 -73.45 185 185 _____________P -1 35.42 -73.45 TS 60 9 31
1860 NA NA 06:00:00 TS 35.80 -73.10 215 215 _____________O -1 35.80 -73.10 TS 60 9 36
1860 NA NA 09:00:00 TS 36.16 -72.80 246 246 _____________P -1 36.16 -72.80 TS 60 9 35
1860 NA NA 12:00:00 TS 36.50 -72.50 279 279 _____________O -1 36.50 -72.50 TS 60 9 35
1860 NA NA 15:00:00 TS 36.86 -72.20 298 298 _____________P -1 36.86 -72.20 TS 62 8 34
1860 NA NA 18:00:00 TS 37.20 -71.90 306 306 _____________O -1 37.20 -71.90 HU 65 8 37
1860 NA NA 21:00:00 TS 37.49 -71.60 318 318 _____________P -1 37.49 -71.60 HU 65 8 38
1860 NA NA 1860-08-25 00:00:00 TS 37.80 -71.30 321 315 _____________O -1 37.80 -71.30 HU 65 8 35
1860 NA NA 03:00:00 TS 38.18 -70.99 319 293 _____________P -1 38.18 -70.99 HU 65 9 31
1860 NA NA 06:00:00 TS 38.60 -70.70 293 268 _____________O -1 38.60 -70.70 HU 65 9 27
1860 NA NA 09:00:00 TS 39.00 -70.45 274 237 _____________P -1 39.00 -70.45 HU 65 9 26
1860 NA NA 12:00:00 TS 39.40 -70.20 237 200 _____________O -1 39.40 -70.20 HU 65 9 28
1860 NA NA 15:00:00 TS 39.80 -69.91 200 169 _____________P -1 39.80 -69.91 HU 65 9 30
1860 NA NA 18:00:00 TS 40.20 -69.60 169 142 _____________O -1 40.20 -69.60 HU 65 8 28
1860 NA NA 21:00:00 TS 40.55 -69.38 142 113 _____________P -1 40.55 -69.38 HU 65 9 30
1860 NA NA 1860-08-26 00:00:00 TS 41.00 -69.00 113 113 _____________O -1 41.00 -69.00 HU 65 14 37
1860 NA NA 03:00:00 TS 41.70 -68.23 148 148 _____________P -1 41.70 -68.23 HU 62 20 40
1860 NA NA 06:00:00 TS 42.50 -67.30 165 64 _____________O -1 42.50 -67.30 TS 60 20 40
1860 NA NA 09:00:00 TS 43.25 -66.48 64 0 _____________P -1 43.25 -66.48 TS 55 19 38
1860 NA NA 12:00:00 TS 44.00 -65.70 0 0 _____________O -1 44.00 -65.70 TS 50 19 36
1860 NA NA 15:00:00 TS 44.75 -64.95 0 0 _____________P -1 44.75 -64.95 TS 45 18 35
1860 NA NA 18:00:00 TS 45.50 -64.20 0 0 _____________O -1 45.50 -64.20 TS 40 18 36
1860 NA NA 21:00:00 TS 46.23 -63.40 0 0 _____________P -1 46.23 -63.40 TS 37 19 36
1860 NA NA 1860-08-27 00:00:00 ET 47.00 -62.60 66 66 _____________O -1 47.00 -62.60 EX 35 19 34
1860 NA NA 03:00:00 ET 47.83 -61.85 129 62 _____________P -1 47.83 -61.85 EX 35 20 31
1860 NA NA 06:00:00 ET 48.70 -61.10 62 60 _____________O -1 48.70 -61.10 EX 35 20 30
1860 NA NA 09:00:00 ET 49.60 -60.32 66 7 _____________P -1 49.60 -60.32 EX 32 21 30
1860 NA NA 12:00:00 ET 50.50 -59.50 0 _____________O -1 50.50 -59.50 EX 30 21 30